createdAt,value
2018-08-09T00:01:58.152Z,435.33
2018-08-09T00:04:25.334Z,401.33
2018-08-09T00:06:52.503Z,376.30
2018-08-09T00:09:19.684Z,378.70
2018-08-09T00:11:46.872Z,419.70
2018-08-09T00:14:14.056Z,387.50
2018-08-09T00:16:41.518Z,406.67
2018-08-09T00:19:08.700Z,455.97
2018-08-09T00:21:35.868Z,440.07
2018-08-09T00:24:03.219Z,521.10
2018-08-09T00:26:30.388Z,427.60
2018-08-09T00:28:58.052Z,524.73
2018-08-09T00:31:25.216Z,501.47
2018-08-09T00:33:52.894Z,491.93
2018-08-09T00:36:20.043Z,517.00
2018-08-09T00:38:47.232Z,351.07
2018-08-09T00:41:14.398Z,425.07
2018-08-09T00:43:41.579Z,494.50
2018-08-09T00:46:08.937Z,428.70
2018-08-09T00:48:36.120Z,420.90
2018-08-09T00:51:03.298Z,399.07
2018-08-09T00:53:30.472Z,418.50
2018-08-09T00:55:57.626Z,376.83
2018-08-09T00:58:24.800Z,391.37
2018-08-09T01:00:51.981Z,362.30
2018-08-09T01:03:19.142Z,384.17
2018-08-09T01:05:46.303Z,408.40
2018-08-09T01:08:13.473Z,416.20
2018-08-09T01:10:40.642Z,367.60
2018-08-09T01:13:07.812Z,367.47
2018-08-09T01:15:34.980Z,361.50
2018-08-09T01:18:02.179Z,358.90
2018-08-09T01:20:29.395Z,384.40
2018-08-09T01:22:56.589Z,337.73
2018-08-09T01:25:23.829Z,366.43
2018-08-09T01:27:51.010Z,370.97
2018-08-09T01:30:18.211Z,351.67
2018-08-09T01:32:45.431Z,374.50
2018-08-09T01:35:12.770Z,391.13
2018-08-09T01:37:39.944Z,411.23
2018-08-09T01:40:07.155Z,425.13
2018-08-09T01:42:45.783Z,352.50
2018-08-09T01:45:12.964Z,321.87
2018-08-09T01:47:40.120Z,307.80
2018-08-09T01:50:07.336Z,313.67
2018-08-09T01:52:34.513Z,311.70
2018-08-09T01:55:01.720Z,312.07
2018-08-09T01:57:28.936Z,310.23
2018-08-09T01:59:56.119Z,321.63
2018-08-09T02:02:23.337Z,300.17
2018-08-09T02:04:50.620Z,363.47
2018-08-09T02:07:17.755Z,322.17
2018-08-09T02:09:44.946Z,313.90
2018-08-09T02:12:12.155Z,307.70
2018-08-09T02:14:39.348Z,319.07
2018-08-09T02:17:06.539Z,297.67
2018-08-09T02:19:33.898Z,303.23
2018-08-09T02:22:01.088Z,306.50
2018-08-09T02:24:28.316Z,298.20
2018-08-09T02:26:55.539Z,294.90
2018-08-09T02:29:22.906Z,302.60
2018-08-09T02:31:50.101Z,290.23
2018-08-09T02:34:17.314Z,313.47
2018-08-09T02:36:44.503Z,278.77
2018-08-09T02:39:11.752Z,334.27
2018-08-09T02:41:38.926Z,292.67
2018-08-09T02:44:06.309Z,274.23
2018-08-09T02:46:33.564Z,287.53
2018-08-09T02:49:00.755Z,286.80
2018-08-09T02:51:28.244Z,280.60
2018-08-09T02:53:55.421Z,286.27
2018-08-09T02:56:22.611Z,278.93
2018-08-09T02:58:49.812Z,286.07
2018-08-09T03:01:17.032Z,318.87
2018-08-09T03:03:44.227Z,312.90
2018-08-09T03:06:11.429Z,278.63
2018-08-09T03:08:38.847Z,279.37
2018-08-09T03:11:06.293Z,318.07
2018-08-09T03:13:33.491Z,287.27
2018-08-09T03:16:00.681Z,281.67
2018-08-09T03:18:27.880Z,287.03
2018-08-09T03:20:55.083Z,266.70
2018-08-09T03:23:22.351Z,305.03
2018-08-09T03:25:49.584Z,270.57
2018-08-09T03:28:16.768Z,264.93
2018-08-09T03:30:43.986Z,316.70
2018-08-09T03:33:11.175Z,280.20
2018-08-09T03:35:38.359Z,330.40
2018-08-09T03:38:05.590Z,276.03
2018-08-09T03:40:32.779Z,289.73
2018-08-09T03:42:59.979Z,260.53
2018-08-09T03:45:27.163Z,313.43
2018-08-09T03:47:54.379Z,270.43
2018-08-09T03:50:21.571Z,278.17
2018-08-09T03:52:48.759Z,270.93
2018-08-09T03:55:15.969Z,283.07
2018-08-09T03:57:43.161Z,313.50
2018-08-09T04:00:10.484Z,310.20
2018-08-09T04:02:37.967Z,302.00
2018-08-09T04:05:05.414Z,320.13
2018-08-09T04:07:32.596Z,272.83
2018-08-09T04:09:59.787Z,281.40
2018-08-09T04:12:26.990Z,267.60
2018-08-09T04:14:54.187Z,262.10
2018-08-09T04:17:21.851Z,266.87
2018-08-09T04:19:50.342Z,251.63
2018-08-09T04:22:18.040Z,283.03
2018-08-09T04:24:45.699Z,288.27
2018-08-09T04:27:12.895Z,278.27
2018-08-09T04:29:40.315Z,300.10
2018-08-09T04:32:07.542Z,326.27
2018-08-09T04:34:34.860Z,288.47
2018-08-09T04:37:02.036Z,321.20
2018-08-09T04:39:29.224Z,294.33
2018-08-09T04:41:56.411Z,298.03
2018-08-09T04:44:23.567Z,282.47
2018-08-09T04:46:50.760Z,290.93
2018-08-09T04:49:17.948Z,334.10
2018-08-09T04:51:45.099Z,293.53
2018-08-09T04:54:12.251Z,310.03
2018-08-09T04:56:39.431Z,294.67
2018-08-09T04:59:06.628Z,293.30
2018-08-09T05:01:33.801Z,315.17
2018-08-09T05:04:00.968Z,292.50
2018-08-09T05:06:28.119Z,311.23
2018-08-09T05:08:55.291Z,315.17
2018-08-09T05:11:22.444Z,354.97
2018-08-09T05:13:49.602Z,328.67
2018-08-09T05:16:16.760Z,316.13
2018-08-09T05:18:43.928Z,340.00
2018-08-09T05:21:11.099Z,369.63
2018-08-09T05:23:38.269Z,310.93
2018-08-09T05:26:05.635Z,307.97
2018-08-09T05:28:32.954Z,367.23
2018-08-09T05:31:00.133Z,321.50
2018-08-09T05:33:27.304Z,342.03
2018-08-09T05:35:54.464Z,310.03
2018-08-09T05:38:21.627Z,319.17
2018-08-09T05:40:48.795Z,364.60
2018-08-09T05:43:16.027Z,346.93
2018-08-09T05:45:43.519Z,377.37
2018-08-09T05:48:10.671Z,376.27
2018-08-09T05:50:37.856Z,323.27
2018-08-09T05:53:05.209Z,322.80
2018-08-09T05:55:32.372Z,333.23
2018-08-09T05:57:59.584Z,345.53
2018-08-09T06:00:26.751Z,350.50
2018-08-09T06:02:53.903Z,328.87
2018-08-09T06:05:21.083Z,345.87
2018-08-09T06:07:48.251Z,361.73
2018-08-09T06:10:15.428Z,380.77
2018-08-09T06:12:42.603Z,342.20
2018-08-09T06:15:09.766Z,376.90
2018-08-09T06:17:36.927Z,333.50
2018-08-09T06:20:04.626Z,320.13
2018-08-09T06:22:31.800Z,381.67
2018-08-09T06:24:58.963Z,337.57
2018-08-09T06:27:26.128Z,332.53
2018-08-09T06:29:53.380Z,321.57
2018-08-09T06:32:20.584Z,375.17
2018-08-09T06:34:47.769Z,335.13
2018-08-09T06:37:14.954Z,336.67
2018-08-09T06:39:42.172Z,374.47
2018-08-09T06:42:09.392Z,347.17
2018-08-09T06:44:36.571Z,347.50
2018-08-09T06:47:03.732Z,363.90
2018-08-09T06:49:31.090Z,308.33
2018-08-09T06:51:58.279Z,340.87
2018-08-09T06:54:25.448Z,350.13
2018-08-09T06:56:52.606Z,341.53
2018-08-09T06:59:19.764Z,358.87
2018-08-09T07:01:46.943Z,406.60
2018-08-09T07:04:14.112Z,413.57
2018-08-09T07:06:41.289Z,469.10
2018-08-09T07:09:09.181Z,583.97
2018-08-09T07:11:36.388Z,619.77
2018-08-09T07:14:03.620Z,599.30
2018-08-09T07:16:30.816Z,596.03
2018-08-09T07:18:57.956Z,626.53
2018-08-09T07:21:25.124Z,669.60
2018-08-09T07:23:52.304Z,752.73
2018-08-09T07:26:19.509Z,718.30
2018-08-09T07:28:46.640Z,708.07
2018-08-09T07:31:13.800Z,742.40
2018-08-09T07:33:40.984Z,713.97
2018-08-09T07:36:08.151Z,708.30
2018-08-09T07:38:35.292Z,738.87
2018-08-09T07:41:02.479Z,735.10
2018-08-09T07:43:29.660Z,743.17
2018-08-09T07:45:56.824Z,805.00
2018-08-09T07:48:24.023Z,823.43
2018-08-09T07:50:51.211Z,822.73
2018-08-09T07:53:18.373Z,850.23
2018-08-09T07:55:45.545Z,801.00
2018-08-09T07:58:12.705Z,775.27
2018-08-09T08:00:39.873Z,757.90
2018-08-09T08:03:07.068Z,776.77
2018-08-09T08:05:34.299Z,813.10
2018-08-09T08:08:01.485Z,781.37
2018-08-09T08:10:28.776Z,837.43
2018-08-09T08:12:55.962Z,858.07
2018-08-09T08:15:23.120Z,832.13
2018-08-09T08:17:50.303Z,774.10
2018-08-09T08:20:17.460Z,779.10
2018-08-09T08:22:44.659Z,831.17
2018-08-09T08:25:11.883Z,864.87
2018-08-09T08:27:39.043Z,870.90
2018-08-09T08:30:08.628Z,863.00
2018-08-09T08:32:35.924Z,828.23
2018-08-09T08:35:03.315Z,794.13
2018-08-09T08:37:30.475Z,844.10
2018-08-09T08:39:57.646Z,780.07
2018-08-09T08:42:24.876Z,800.97
2018-08-09T08:44:52.031Z,806.30
2018-08-09T08:47:19.244Z,829.83
2018-08-09T08:49:46.376Z,837.57
2018-08-09T08:52:13.558Z,804.70
2018-08-09T08:54:40.728Z,855.20
2018-08-09T08:57:07.902Z,839.40
2018-08-09T08:59:35.076Z,840.90
2018-08-09T09:02:02.268Z,809.40
2018-08-09T09:04:29.503Z,804.63
2018-08-09T09:06:56.638Z,798.17
2018-08-09T09:09:23.814Z,814.57
2018-08-09T09:11:51.003Z,806.03
2018-08-09T09:14:18.167Z,796.83
2018-08-09T09:16:45.327Z,863.60
2018-08-09T09:19:12.530Z,817.97
2018-08-09T09:21:39.648Z,876.97
2018-08-09T09:24:06.849Z,863.83
2018-08-09T09:26:34.036Z,849.97
2018-08-09T09:29:01.217Z,816.30
2018-08-09T09:31:28.379Z,876.47
2018-08-09T09:33:55.564Z,871.73
2018-08-09T09:36:22.728Z,860.13
2018-08-09T09:38:49.875Z,849.83
2018-08-09T09:41:17.048Z,855.13
2018-08-09T09:43:44.226Z,890.03
2018-08-09T09:46:11.411Z,843.80
2018-08-09T09:48:38.651Z,833.73
2018-08-09T09:51:06.003Z,847.03
2018-08-09T09:53:33.162Z,860.37
2018-08-09T09:56:00.358Z,846.23
2018-08-09T09:58:27.496Z,866.10
2018-08-09T10:01:00.332Z,875.33
2018-08-09T10:03:27.492Z,858.93
2018-08-09T10:05:54.647Z,850.37
2018-08-09T10:08:21.828Z,874.13
2018-08-09T10:10:49.005Z,847.63
2018-08-09T10:13:16.168Z,877.47
2018-08-09T10:15:43.352Z,803.43
2018-08-09T10:18:10.511Z,850.03
2018-08-09T10:20:37.688Z,894.07
2018-08-09T10:23:04.925Z,875.93
2018-08-09T10:25:32.392Z,806.73
2018-08-09T10:27:59.553Z,808.60
2018-08-09T10:30:26.990Z,869.40
2018-08-09T10:32:54.160Z,840.93
2018-08-09T10:35:21.368Z,809.73
2018-08-09T10:37:48.539Z,822.13
2018-08-09T10:40:15.705Z,877.83
2018-08-09T10:42:42.895Z,867.37
2018-08-09T10:45:10.096Z,872.33
2018-08-09T10:47:37.445Z,879.07
2018-08-09T10:50:04.637Z,846.50
2018-08-09T10:52:31.841Z,883.37
2018-08-09T10:54:59.022Z,898.70
2018-08-09T10:57:26.232Z,879.00
2018-08-09T10:59:53.423Z,910.63
2018-08-09T11:02:20.580Z,825.03
2018-08-09T11:04:48.716Z,872.13
2018-08-09T11:07:15.883Z,855.97
2018-08-09T11:09:43.064Z,828.23
2018-08-09T11:12:10.244Z,864.93
2018-08-09T11:14:37.415Z,859.47
2018-08-09T11:17:04.699Z,889.43
2018-08-09T11:19:31.867Z,854.27
2018-08-09T11:21:59.031Z,835.00
2018-08-09T11:24:26.197Z,851.20
2018-08-09T11:26:53.355Z,910.33
2018-08-09T11:29:20.548Z,864.23
2018-08-09T11:31:47.768Z,871.50
2018-08-09T11:34:14.971Z,864.53
2018-08-09T11:36:42.167Z,855.57
2018-08-09T11:39:11.015Z,870.67
2018-08-09T11:41:38.417Z,904.07
2018-08-09T11:44:05.659Z,891.63
2018-08-09T11:46:32.852Z,847.27
2018-08-09T11:49:00.071Z,862.77
2018-08-09T11:51:27.427Z,875.77
2018-08-09T11:53:54.614Z,866.17
2018-08-09T11:56:21.855Z,895.03
2018-08-09T11:58:49.007Z,820.00
2018-08-09T12:01:16.215Z,849.03
2018-08-09T12:03:43.409Z,895.37
2018-08-09T12:06:10.600Z,829.47
2018-08-09T12:08:37.787Z,876.20
2018-08-09T12:11:05.127Z,884.07
2018-08-09T12:13:32.391Z,901.70
2018-08-09T12:15:59.593Z,832.03
2018-08-09T12:18:26.859Z,853.17
2018-08-09T12:20:54.118Z,835.57
2018-08-09T12:23:21.288Z,824.67
2018-08-09T12:25:48.516Z,810.17
2018-08-09T12:28:15.756Z,835.90
2018-08-09T12:30:43.029Z,821.53
2018-08-09T12:33:10.311Z,832.97
2018-08-09T12:35:37.527Z,834.37
2018-08-09T12:38:04.735Z,842.43
2018-08-09T12:40:31.936Z,827.63
2018-08-09T12:42:59.193Z,812.03
2018-08-09T12:45:26.409Z,880.97
2018-08-09T12:47:53.634Z,907.80
2018-08-09T12:50:21.045Z,844.80
2018-08-09T12:52:48.276Z,827.93
2018-08-09T12:55:15.514Z,896.63
2018-08-09T12:57:43.320Z,848.07
2018-08-09T13:00:12.315Z,894.23
2018-08-09T13:02:40.926Z,883.03
2018-08-09T13:05:10.716Z,875.93
2018-08-09T13:07:42.860Z,841.60
2018-08-09T13:10:13.277Z,837.27
2018-08-09T13:12:41.701Z,869.57
2018-08-09T13:15:11.633Z,843.33
2018-08-09T13:17:43.889Z,864.47
2018-08-09T13:20:18.082Z,827.50
2018-08-09T13:22:49.060Z,793.50
2018-08-09T13:25:21.538Z,856.17
2018-08-09T13:27:48.911Z,823.40
2018-08-09T13:30:16.262Z,792.97
2018-08-09T13:32:44.273Z,839.27
2018-08-09T13:35:11.662Z,809.60
2018-08-09T13:37:39.698Z,831.97
2018-08-09T13:40:08.087Z,858.17
2018-08-09T13:42:35.476Z,758.57
2018-08-09T13:45:02.971Z,723.67
2018-08-09T13:47:30.316Z,671.97
2018-08-09T13:49:57.627Z,606.70
2018-08-09T13:52:25.264Z,579.97
2018-08-09T13:54:52.563Z,592.23
2018-08-09T13:57:20.063Z,481.47
2018-08-09T13:59:47.423Z,501.83
2018-08-09T14:02:14.675Z,479.43
2018-08-09T14:04:42.013Z,484.17
2018-08-09T14:07:09.385Z,448.93
2018-08-09T14:09:37.515Z,475.43
2018-08-09T14:12:04.835Z,400.90
2018-08-09T14:14:32.077Z,383.23
2018-08-09T14:16:59.285Z,352.97
2018-08-09T14:19:26.483Z,328.40
2018-08-09T14:21:53.821Z,317.13
2018-08-09T14:24:21.037Z,298.07
2018-08-09T14:26:48.221Z,294.27
2018-08-09T14:29:15.458Z,305.30
2018-08-09T14:31:42.631Z,292.27
2018-08-09T14:34:09.828Z,284.57
2018-08-09T14:36:37.083Z,298.50
2018-08-09T14:39:07.482Z,339.73
2018-08-09T14:41:34.665Z,288.70
2018-08-09T14:44:01.872Z,304.30
2018-08-09T14:46:29.072Z,318.10
2018-08-09T14:48:56.284Z,308.87
2018-08-09T14:51:23.591Z,363.23
2018-08-09T14:53:50.791Z,315.63
2018-08-09T14:56:18.012Z,311.77
2018-08-09T14:58:45.227Z,320.53
2018-08-09T15:01:12.443Z,327.93
2018-08-09T15:03:40.008Z,320.07
2018-08-09T15:06:07.228Z,332.53
2018-08-09T15:08:34.426Z,355.03
2018-08-09T15:11:01.649Z,363.37
2018-08-09T15:13:28.885Z,400.87
2018-08-09T15:15:56.060Z,424.63
2018-08-09T15:18:23.277Z,416.70
2018-08-09T15:20:50.467Z,426.10
2018-08-09T15:23:17.671Z,516.57
2018-08-09T15:25:44.860Z,479.87
2018-08-09T15:28:12.072Z,421.07
2018-08-09T15:30:39.333Z,445.83
2018-08-09T15:33:06.578Z,407.97
2018-08-09T15:35:33.804Z,414.43
2018-08-09T15:38:01.142Z,392.37
2018-08-09T15:40:28.243Z,373.77
2018-08-09T15:42:55.472Z,461.73
2018-08-09T15:45:22.680Z,432.97
2018-08-09T15:47:49.980Z,428.40
2018-08-09T15:50:18.439Z,369.20
2018-08-09T15:52:45.712Z,359.77
2018-08-09T15:55:13.988Z,385.53
2018-08-09T15:57:41.224Z,399.33
2018-08-09T16:00:11.875Z,456.03
2018-08-09T16:02:39.172Z,405.00
2018-08-09T16:05:06.628Z,413.30
2018-08-09T16:07:33.848Z,454.03
2018-08-09T16:10:01.115Z,392.63
2018-08-09T16:12:28.403Z,379.73
2018-08-09T16:14:55.600Z,396.53
2018-08-09T16:17:22.813Z,478.33
2018-08-09T16:19:50.077Z,504.97
2018-08-09T16:22:17.303Z,428.57
2018-08-09T16:24:44.515Z,450.40
2018-08-09T16:27:11.736Z,531.43
2018-08-09T16:29:39.097Z,543.47
2018-08-09T16:32:06.361Z,540.10
2018-08-09T16:34:33.575Z,567.80
2018-08-09T16:37:00.800Z,574.27
2018-08-09T16:39:28.021Z,576.60
2018-08-09T16:41:55.248Z,543.33
2018-08-09T16:44:22.472Z,508.27
2018-08-09T16:46:49.692Z,578.93
2018-08-09T16:49:16.915Z,511.73
2018-08-09T16:51:44.160Z,554.80
2018-08-09T16:54:11.352Z,529.67
2018-08-09T16:56:38.626Z,499.13
2018-08-09T16:59:05.997Z,531.83
2018-08-09T17:01:33.252Z,545.67
2018-08-09T17:04:00.541Z,509.37
2018-08-09T17:06:27.772Z,490.53
2018-08-09T17:08:55.089Z,512.17
2018-08-09T17:11:22.471Z,483.10
2018-08-09T17:13:49.696Z,449.63
2018-08-09T17:16:16.924Z,414.47
2018-08-09T17:18:44.132Z,468.23
2018-08-09T17:21:11.384Z,411.13
2018-08-09T17:23:38.763Z,475.07
2018-08-09T17:26:06.064Z,423.27
2018-08-09T17:28:33.283Z,481.90
2018-08-09T17:31:00.491Z,377.37
2018-08-09T17:33:27.706Z,459.13
2018-08-09T17:35:54.917Z,395.67
2018-08-09T17:38:22.101Z,392.97
2018-08-09T17:40:49.317Z,408.73
2018-08-09T17:43:16.583Z,370.67
2018-08-09T17:45:43.833Z,372.53
2018-08-09T17:48:11.076Z,393.33
2018-08-09T17:50:38.520Z,419.37
2018-08-09T17:53:07.240Z,345.97
2018-08-09T17:55:34.557Z,324.10
2018-08-09T17:58:01.760Z,341.27
2018-08-09T18:00:30.615Z,309.40
2018-08-09T18:02:58.001Z,311.27
2018-08-09T18:05:25.308Z,317.47
2018-08-09T18:07:53.089Z,346.83
2018-08-09T18:10:22.660Z,302.33
2018-08-09T18:12:50.241Z,293.37
2018-08-09T18:15:17.897Z,292.03
2018-08-09T18:17:45.186Z,265.67
2018-08-09T18:20:21.143Z,260.23
2018-08-09T18:22:48.511Z,271.80
2018-08-09T18:25:16.012Z,256.63
2018-08-09T18:27:43.358Z,308.80
2018-08-09T18:30:14.576Z,250.97
2018-08-09T18:32:41.963Z,294.60
2018-08-09T18:35:10.846Z,260.10
2018-08-09T18:37:38.367Z,243.17
2018-08-09T18:40:07.859Z,283.70
2018-08-09T18:42:35.116Z,255.73
2018-08-09T18:45:02.441Z,273.53
2018-08-09T18:47:29.740Z,230.97
2018-08-09T18:49:57.136Z,260.53
2018-08-09T18:52:24.502Z,223.90
2018-08-09T18:54:51.724Z,249.10
2018-08-09T18:57:19.172Z,267.30
2018-08-09T18:59:46.436Z,269.83
2018-08-09T19:02:13.724Z,229.83
2018-08-09T19:04:41.209Z,265.63
2018-08-09T19:07:08.444Z,227.63
2018-08-09T19:09:35.776Z,234.53
2018-08-09T19:12:03.027Z,227.17
2018-08-09T19:14:31.936Z,214.30
2018-08-09T19:16:59.231Z,213.37
2018-08-09T19:19:26.480Z,251.43
2018-08-09T19:21:53.852Z,222.83
2018-08-09T19:24:21.111Z,202.53
2018-08-09T19:26:48.508Z,240.43
2018-08-09T19:29:15.739Z,204.30
2018-08-09T19:31:42.928Z,220.70
2018-08-09T19:34:10.358Z,251.53
2018-08-09T19:36:37.625Z,219.37
2018-08-09T19:39:08.952Z,252.30
2018-08-09T19:41:36.239Z,239.80
2018-08-09T19:44:03.536Z,236.23
2018-08-09T19:46:30.920Z,220.40
2018-08-09T19:48:58.149Z,230.93
2018-08-09T19:51:26.044Z,228.67
2018-08-09T19:53:53.368Z,229.90
2018-08-09T19:56:20.603Z,229.53
2018-08-09T19:58:47.809Z,246.43
2018-08-09T20:01:15.063Z,234.37
2018-08-09T20:03:42.385Z,237.00
2018-08-09T20:06:09.631Z,256.73
2018-08-09T20:08:37.269Z,272.20
2018-08-09T20:11:04.501Z,248.77
2018-08-09T20:13:32.132Z,230.53
2018-08-09T20:15:59.519Z,254.20
2018-08-09T20:18:26.756Z,272.77
2018-08-09T20:20:54.124Z,244.77
2018-08-09T20:23:21.436Z,235.40
2018-08-09T20:25:48.612Z,240.10
2018-08-09T20:28:15.805Z,255.70
2018-08-09T20:30:43.128Z,236.00
2018-08-09T20:33:10.326Z,278.37
2018-08-09T20:35:37.520Z,239.53
2018-08-09T20:38:04.780Z,245.03
2018-08-09T20:40:32.004Z,256.37
2018-08-09T20:43:00.596Z,239.23
2018-08-09T20:45:28.922Z,236.43
2018-08-09T20:47:56.167Z,276.47
2018-08-09T20:50:25.168Z,257.07
2018-08-09T20:52:52.388Z,235.43
2018-08-09T20:55:19.748Z,239.47
2018-08-09T20:57:47.664Z,262.93
2018-08-09T21:00:17.417Z,260.77
2018-08-09T21:02:45.775Z,250.97
2018-08-09T21:05:18.184Z,256.73
2018-08-09T21:07:45.408Z,262.87
2018-08-09T21:10:13.008Z,284.47
2018-08-09T21:12:40.302Z,282.97
2018-08-09T21:15:07.695Z,297.30
2018-08-09T21:17:34.921Z,256.87
2018-08-09T21:20:02.347Z,246.07
2018-08-09T21:22:29.649Z,260.77
2018-08-09T21:24:57.112Z,255.93
2018-08-09T21:27:24.403Z,278.10
2018-08-09T21:29:51.756Z,290.33
2018-08-09T21:32:18.969Z,258.07
2018-08-09T21:34:46.387Z,241.23
2018-08-09T21:37:13.731Z,289.77
2018-08-09T21:39:41.012Z,257.23
2018-08-09T21:42:08.463Z,242.73
2018-08-09T21:44:35.807Z,262.67
2018-08-09T21:47:03.038Z,251.33
2018-08-09T21:49:30.296Z,229.33
2018-08-09T21:51:57.511Z,259.23
2018-08-09T21:54:24.940Z,253.27
2018-08-09T21:56:52.251Z,261.10
2018-08-09T21:59:19.608Z,244.93
2018-08-09T22:01:46.856Z,280.77
2018-08-09T22:04:14.214Z,281.97
2018-08-09T22:06:47.455Z,255.03
2018-08-09T22:10:24.470Z,245.50
2018-08-09T22:12:57.501Z,244.97
2018-08-09T22:16:30.182Z,272.97
2018-08-09T22:19:03.086Z,245.47
2018-08-09T22:21:36.024Z,258.73
2018-08-09T22:24:03.284Z,236.77
2018-08-09T22:26:30.544Z,272.70
2018-08-09T22:28:57.778Z,269.73
2018-08-09T22:31:24.976Z,241.50
2018-08-09T22:33:52.266Z,246.10
2018-08-09T22:36:19.487Z,274.97
2018-08-09T22:38:46.658Z,265.93
2018-08-09T22:41:13.861Z,233.80
2018-08-09T22:43:41.051Z,247.20
2018-08-09T22:46:08.293Z,242.60
2018-08-09T22:48:35.476Z,241.73
2018-08-09T22:51:02.668Z,252.20
2018-08-09T22:53:29.876Z,235.20
2018-08-09T22:55:57.091Z,229.17
2018-08-09T22:58:24.293Z,229.23
2018-08-09T23:00:51.540Z,274.87
2018-08-09T23:03:18.748Z,276.27
2018-08-09T23:05:45.935Z,244.90
2018-08-09T23:08:14.209Z,271.20
2018-08-09T23:10:42.200Z,245.43
2018-08-09T23:13:10.273Z,237.27
2018-08-09T23:15:37.525Z,242.37
2018-08-09T23:18:05.041Z,253.40
2018-08-09T23:20:32.394Z,252.43
2018-08-09T23:22:59.629Z,247.00
2018-08-09T23:25:26.807Z,255.17
2018-08-09T23:27:54.021Z,272.00
2018-08-09T23:30:21.224Z,244.77
2018-08-09T23:32:48.428Z,265.33
2018-08-09T23:35:15.627Z,257.47
2018-08-09T23:37:42.878Z,252.00
2018-08-09T23:40:10.696Z,253.80
2018-08-09T23:42:38.274Z,255.47
2018-08-09T23:45:06.940Z,277.90
2018-08-09T23:47:34.624Z,256.37
2018-08-09T23:50:01.836Z,237.13
2018-08-09T23:52:29.028Z,249.87
2018-08-09T23:54:56.271Z,234.50
2018-08-09T23:57:23.478Z,227.60
2018-08-09T23:59:50.672Z,223.57
